sensor_id;sensor_type;location;lat;lon;timestamp;pressure;altitude;pressure_sealevel;temperature;humidity
54022;BME280;39936;51.058;17.220;2022-11-15T00:01:26;101912.38;;;3.63;100.00
54022;BME280;39936;51.058;17.220;2022-11-15T00:04:47;101911.56;;;3.53;100.00
54022;BME280;39936;51.058;17.220;2022-11-15T00:08:59;101908.70;;;3.44;100.00
54022;BME280;39936;51.058;17.220;2022-11-15T00:12:37;101902.69;;;3.43;100.00
54022;BME280;39936;51.058;17.220;2022-11-15T00:15:57;101897.18;;;3.42;100.00
54022;BME280;39936;51.058;17.220;2022-11-15T00:34:03;101861.27;;;3.44;100.00
54022;BME280;39936;51.058;17.220;2022-11-15T00:37:14;101865.08;;;3.43;100.00
54022;BME280;39936;51.058;17.220;2022-11-15T00:40:29;101863.66;;;3.41;100.00
54022;BME280;39936;51.058;17.220;2022-11-15T00:44:03;101865.34;;;3.39;100.00
54022;BME280;39936;51.058;17.220;2022-11-15T00:52:17;101859.26;;;3.40;100.00
54022;BME280;39936;51.058;17.220;2022-11-15T00:55:51;101857.48;;;3.45;100.00
54022;BME280;39936;51.058;17.220;2022-11-15T00:58:59;101851.79;;;3.44;100.00
54022;BME280;39936;51.058;17.220;2022-11-15T01:02:19;101851.36;;;3.31;100.00
54022;BME280;39936;51.058;17.220;2022-11-15T01:05:37;101850.79;;;3.20;100.00
54022;BME280;39936;51.058;17.220;2022-11-15T01:08:57;101855.42;;;3.08;100.00
54022;BME280;39936;51.058;17.220;2022-11-15T01:12:05;101861.00;;;3.05;100.00
54022;BME280;39936;51.058;17.220;2022-11-15T01:15:34;101864.80;;;3.04;100.00
54022;BME280;39936;51.058;17.220;2022-11-15T01:18:50;101863.97;;;2.91;100.00
54022;BME280;39936;51.058;17.220;2022-11-15T01:22:19;101857.63;;;2.88;100.00
54022;BME280;39936;51.058;17.220;2022-11-15T01:26:06;101852.42;;;2.88;100.00
54022;BME280;39936;51.058;17.220;2022-11-15T01:29:44;101846.18;;;2.90;100.00
54022;BME280;39936;51.058;17.220;2022-11-15T01:32:58;101839.72;;;2.94;100.00
54022;BME280;39936;51.058;17.220;2022-11-15T01:51:01;101829.59;;;2.96;100.00
54022;BME280;39936;51.058;17.220;2022-11-15T01:54:13;101822.08;;;2.90;100.00
54022;BME280;39936;51.058;17.220;2022-11-15T01:57:24;101823.04;;;2.71;100.00
54022;BME280;39936;51.058;17.220;2022-11-15T02:00:41;101819.05;;;2.61;100.00
54022;BME280;39936;51.058;17.220;2022-11-15T02:04:27;101813.15;;;2.58;100.00
54022;BME280;39936;51.058;17.220;2022-11-15T02:08:03;101805.32;;;2.58;100.00
54022;BME280;39936;51.058;17.220;2022-11-15T02:11:37;101799.60;;;2.54;100.00
54022;BME280;39936;51.058;17.220;2022-11-15T02:15:12;101797.09;;;2.54;100.00
54022;BME280;39936;51.058;17.220;2022-11-15T02:18:55;101790.01;;;2.56;100.00
54022;BME280;39936;51.058;17.220;2022-11-15T02:22:37;101785.89;;;2.57;100.00
54022;BME280;39936;51.058;17.220;2022-11-15T02:50:17;101776.30;;;2.03;100.00
54022;BME280;39936;51.058;17.220;2022-11-15T02:53:32;101770.84;;;1.86;100.00
54022;BME280;39936;51.058;17.220;2022-11-15T02:56:56;101769.95;;;1.48;100.00
54022;BME280;39936;51.058;17.220;2022-11-15T03:00:17;101723.26;;;1.04;100.00
54022;BME280;39936;51.058;17.220;2022-11-15T03:12:11;101757.98;;;1.27;100.00
54022;BME280;39936;51.058;17.220;2022-11-15T03:15:28;101756.96;;;1.20;100.00
54022;BME280;39936;51.058;17.220;2022-11-15T03:19:12;101753.88;;;1.21;100.00
54022;BME280;39936;51.058;17.220;2022-11-15T03:36:04;101748.10;;;1.49;100.00
54022;BME280;39936;51.058;17.220;2022-11-15T03:39:28;101746.64;;;1.47;100.00
54022;BME280;39936;51.058;17.220;2022-11-15T03:43:24;101743.28;;;1.24;100.00
54022;BME280;39936;51.058;17.220;2022-11-15T03:47:04;101741.55;;;1.02;100.00
54022;BME280;39936;51.058;17.220;2022-11-15T03:50:34;101734.59;;;0.85;100.00
54022;BME280;39936;51.058;17.220;2022-11-15T03:54:13;101731.93;;;0.95;100.00
54022;BME280;39936;51.058;17.220;2022-11-15T03:57:35;101730.82;;;1.03;100.00
54022;BME280;39936;51.058;17.220;2022-11-15T04:01:08;101732.16;;;1.13;100.00
54022;BME280;39936;51.058;17.220;2022-11-15T04:04:32;101731.91;;;1.17;100.00
54022;BME280;39936;51.058;17.220;2022-11-15T04:08:02;101732.95;;;1.09;100.00
54022;BME280;39936;51.058;17.220;2022-11-15T04:11:16;101732.72;;;0.90;100.00
54022;BME280;39936;51.058;17.220;2022-11-15T04:15:19;101727.70;;;0.74;100.00
54022;BME280;39936;51.058;17.220;2022-11-15T04:18:47;101732.62;;;0.80;100.00
54022;BME280;39936;51.058;17.220;2022-11-15T04:46:39;101580.86;;;-0.20;100.00
54022;BME280;39936;51.058;17.220;2022-11-15T04:50:35;101711.36;;;0.44;100.00
54022;BME280;39936;51.058;17.220;2022-11-15T04:54:17;101717.56;;;0.55;100.00
54022;BME280;39936;51.058;17.220;2022-11-15T04:58:00;101717.52;;;0.64;100.00
54022;BME280;39936;51.058;17.220;2022-11-15T05:01:45;101709.91;;;0.72;100.00
54022;BME280;39936;51.058;17.220;2022-11-15T05:05:53;101704.72;;;0.73;100.00
54022;BME280;39936;51.058;17.220;2022-11-15T05:09:26;101707.48;;;0.60;100.00
54022;BME280;39936;51.058;17.220;2022-11-15T05:12:50;101704.70;;;0.45;100.00
54022;BME280;39936;51.058;17.220;2022-11-15T05:16:35;101696.05;;;0.36;100.00
54022;BME280;39936;51.058;17.220;2022-11-15T05:20:38;101694.02;;;0.48;100.00
54022;BME280;39936;51.058;17.220;2022-11-15T05:28:08;101694.39;;;0.38;100.00
54022;BME280;39936;51.058;17.220;2022-11-15T05:32:49;101697.37;;;0.41;100.00
54022;BME280;39936;51.058;17.220;2022-11-15T05:36:38;101695.98;;;0.51;100.00
54022;BME280;39936;51.058;17.220;2022-11-15T06:11:14;101684.30;;;0.75;100.00
54022;BME280;39936;51.058;17.220;2022-11-15T06:15:59;101685.78;;;0.52;100.00
54022;BME280;39936;51.058;17.220;2022-11-15T06:19:41;101696.82;;;0.53;100.00
54022;BME280;39936;51.058;17.220;2022-11-15T06:23:03;101697.48;;;0.58;100.00
54022;BME280;39936;51.058;17.220;2022-11-15T06:30:22;101695.46;;;0.63;100.00
54022;BME280;39936;51.058;17.220;2022-11-15T06:33:52;101685.52;;;0.46;100.00
54022;BME280;39936;51.058;17.220;2022-11-15T06:37:33;101663.75;;;0.09;100.00
54022;BME280;39936;51.058;17.220;2022-11-15T06:41:24;101691.24;;;0.30;100.00
54022;BME280;39936;51.058;17.220;2022-11-15T06:48:28;101698.29;;;0.47;100.00
54022;BME280;39936;51.058;17.220;2022-11-15T06:51:41;101701.87;;;0.60;100.00
54022;BME280;39936;51.058;17.220;2022-11-15T06:55:15;101702.23;;;0.48;100.00
54022;BME280;39936;51.058;17.220;2022-11-15T06:58:26;101692.49;;;0.46;100.00
54022;BME280;39936;51.058;17.220;2022-11-15T07:43:22;101701.77;;;2.56;100.00
54022;BME280;39936;51.058;17.220;2022-11-15T08:06:21;101669.45;;;3.77;100.00
54022;BME280;39936;51.058;17.220;2022-11-15T08:27:21;101658.35;;;4.08;100.00
54022;BME280;39936;51.058;17.220;2022-11-15T08:30:56;101648.99;;;4.40;100.00
54022;BME280;39936;51.058;17.220;2022-11-15T08:35:13;101649.40;;;4.54;100.00
54022;BME280;39936;51.058;17.220;2022-11-15T08:39:04;101651.53;;;4.57;100.00
54022;BME280;39936;51.058;17.220;2022-11-15T08:55:31;101621.97;;;5.51;100.00
54022;BME280;39936;51.058;17.220;2022-11-15T09:10:52;101604.58;;;6.56;100.00
54022;BME280;39936;51.058;17.220;2022-11-15T09:14:51;101603.41;;;7.08;100.00
54022;BME280;39936;51.058;17.220;2022-11-15T09:18:14;101601.48;;;7.50;100.00
54022;BME280;39936;51.058;17.220;2022-11-15T09:21:29;101601.72;;;7.83;100.00
54022;BME280;39936;51.058;17.220;2022-11-15T09:38:54;101589.92;;;8.45;100.00
54022;BME280;39936;51.058;17.220;2022-11-15T10:44:45;101499.70;;;11.07;93.00
54022;BME280;39936;51.058;17.220;2022-11-15T10:48:26;101486.28;;;11.30;89.77
54022;BME280;39936;51.058;17.220;2022-11-15T10:57:38;101444.59;;;11.32;88.13
54022;BME280;39936;51.058;17.220;2022-11-15T11:07:43;101465.61;;;11.98;86.64
54022;BME280;39936;51.058;17.220;2022-11-15T11:15:42;101461.15;;;11.95;84.91
54022;BME280;39936;51.058;17.220;2022-11-15T11:19:48;101452.55;;;12.02;83.51
54022;BME280;39936;51.058;17.220;2022-11-15T11:24:11;101451.14;;;11.87;82.37
54022;BME280;39936;51.058;17.220;2022-11-15T11:35:39;101441.48;;;11.41;80.42
54022;BME280;39936;51.058;17.220;2022-11-15T11:43:12;101427.41;;;11.48;79.16
54022;BME280;39936;51.058;17.220;2022-11-15T11:46:59;101415.35;;;11.42;80.24
54022;BME280;39936;51.058;17.220;2022-11-15T11:50:28;101419.70;;;11.59;81.25
54022;BME280;39936;51.058;17.220;2022-11-15T11:53:54;101411.18;;;11.62;79.84
54022;BME280;39936;51.058;17.220;2022-11-15T12:00:51;101403.22;;;11.51;79.03
54022;BME280;39936;51.058;17.220;2022-11-15T12:07:41;101377.98;;;11.38;79.98
54022;BME280;39936;51.058;17.220;2022-11-15T12:11:24;101392.64;;;11.55;81.01
54022;BME280;39936;51.058;17.220;2022-11-15T12:14:54;101379.87;;;11.60;80.74
54022;BME280;39936;51.058;17.220;2022-11-15T12:18:34;101384.40;;;11.75;79.84
54022;BME280;39936;51.058;17.220;2022-11-15T12:31:51;101367.24;;;12.30;78.89
54022;BME280;39936;51.058;17.220;2022-11-15T12:36:11;101252.48;;;11.65;76.92
54022;BME280;39936;51.058;17.220;2022-11-15T12:40:27;101351.50;;;12.47;77.13
54022;BME280;39936;51.058;17.220;2022-11-15T12:52:03;101330.87;;;13.02;78.89
54022;BME280;39936;51.058;17.220;2022-11-15T13:03:24;101318.11;;;13.29;79.48
54022;BME280;39936;51.058;17.220;2022-11-15T13:07:07;101314.25;;;13.33;78.60
54022;BME280;39936;51.058;17.220;2022-11-15T13:10:32;101300.71;;;13.34;78.81
54022;BME280;39936;51.058;17.220;2022-11-15T13:13:58;101300.74;;;13.43;78.53
54022;BME280;39936;51.058;17.220;2022-11-15T13:20:45;101297.63;;;13.20;78.34
54022;BME280;39936;51.058;17.220;2022-11-15T13:24:25;101294.38;;;13.06;78.70
54022;BME280;39936;51.058;17.220;2022-11-15T13:28:25;101289.33;;;13.05;80.11
54022;BME280;39936;51.058;17.220;2022-11-15T13:32:00;101287.14;;;13.14;80.74
54022;BME280;39936;51.058;17.220;2022-11-15T13:35:29;101286.50;;;13.23;81.15
54022;BME280;39936;51.058;17.220;2022-11-15T13:38:44;101283.84;;;13.07;81.03
54022;BME280;39936;51.058;17.220;2022-11-15T13:42:34;101287.56;;;13.05;81.39
54022;BME280;39936;51.058;17.220;2022-11-15T13:49:43;101284.94;;;13.05;81.27
54022;BME280;39936;51.058;17.220;2022-11-15T13:53:13;101237.07;;;12.71;80.03
54022;BME280;39936;51.058;17.220;2022-11-15T14:01:21;101277.98;;;12.90;79.77
54022;BME280;39936;51.058;17.220;2022-11-15T14:12:28;101286.93;;;12.65;81.60
54022;BME280;39936;51.058;17.220;2022-11-15T14:20:34;101264.14;;;12.76;81.35
54022;BME280;39936;51.058;17.220;2022-11-15T14:23:47;101259.68;;;12.74;81.06
54022;BME280;39936;51.058;17.220;2022-11-15T14:27:28;101226.28;;;12.36;80.85
54022;BME280;39936;51.058;17.220;2022-11-15T14:31:10;101257.45;;;12.48;81.21
54022;BME280;39936;51.058;17.220;2022-11-15T14:34:34;101256.94;;;12.29;81.53
54022;BME280;39936;51.058;17.220;2022-11-15T14:38:13;101270.91;;;12.16;81.76
54022;BME280;39936;51.058;17.220;2022-11-15T14:42:05;101268.61;;;11.96;82.04
54022;BME280;39936;51.058;17.220;2022-11-15T14:46:04;101266.65;;;11.74;82.98
54022;BME280;39936;51.058;17.220;2022-11-15T14:49:39;101258.93;;;11.59;83.84
54022;BME280;39936;51.058;17.220;2022-11-15T14:53:19;101253.74;;;11.43;84.72
54022;BME280;39936;51.058;17.220;2022-11-15T14:57:21;101247.16;;;11.13;86.84
54022;BME280;39936;51.058;17.220;2022-11-15T15:00:53;101253.77;;;10.99;87.66
54022;BME280;39936;51.058;17.220;2022-11-15T15:04:06;101255.93;;;10.92;88.25
54022;BME280;39936;51.058;17.220;2022-11-15T15:07:55;101249.18;;;10.79;88.64
54022;BME280;39936;51.058;17.220;2022-11-15T15:11:14;101250.33;;;10.66;89.32
54022;BME280;39936;51.058;17.220;2022-11-15T15:15:22;101247.23;;;10.50;89.82
54022;BME280;39936;51.058;17.220;2022-11-15T15:19:17;101246.84;;;10.33;90.93
54022;BME280;39936;51.058;17.220;2022-11-15T15:22:49;101237.64;;;10.19;91.70
54022;BME280;39936;51.058;17.220;2022-11-15T15:29:42;101234.38;;;9.79;94.93
54022;BME280;39936;51.058;17.220;2022-11-15T15:33:21;101229.83;;;9.61;97.10
54022;BME280;39936;51.058;17.220;2022-11-15T15:36:46;101226.58;;;9.51;97.73
54022;BME280;39936;51.058;17.220;2022-11-15T15:40:17;101229.63;;;9.40;97.99
54022;BME280;39936;51.058;17.220;2022-11-15T15:43:58;101230.69;;;9.22;98.02
54022;BME280;39936;51.058;17.220;2022-11-15T15:47:39;101229.73;;;8.96;99.25
54022;BME280;39936;51.058;17.220;2022-11-15T15:50:58;101227.87;;;8.62;100.00
54022;BME280;39936;51.058;17.220;2022-11-15T15:54:53;101234.33;;;8.47;100.00
54022;BME280;39936;51.058;17.220;2022-11-15T15:58:41;101235.50;;;8.32;100.00
54022;BME280;39936;51.058;17.220;2022-11-15T16:02:08;101237.91;;;8.19;100.00
54022;BME280;39936;51.058;17.220;2022-11-15T16:06:04;101241.98;;;7.91;100.00
54022;BME280;39936;51.058;17.220;2022-11-15T16:09:16;101247.55;;;7.56;100.00
54022;BME280;39936;51.058;17.220;2022-11-15T16:12:51;101250.16;;;7.42;100.00
54022;BME280;39936;51.058;17.220;2022-11-15T16:20:50;101248.67;;;7.14;100.00
54022;BME280;39936;51.058;17.220;2022-11-15T16:24:46;101242.67;;;7.07;100.00
54022;BME280;39936;51.058;17.220;2022-11-15T16:27:57;101236.16;;;7.05;100.00
54022;BME280;39936;51.058;17.220;2022-11-15T16:32:28;101235.88;;;7.03;100.00
54022;BME280;39936;51.058;17.220;2022-11-15T16:35:38;101238.55;;;6.99;100.00
54022;BME280;39936;51.058;17.220;2022-11-15T16:39:46;101238.62;;;6.93;100.00
54022;BME280;39936;51.058;17.220;2022-11-15T16:43:17;101241.55;;;6.84;100.00
54022;BME280;39936;51.058;17.220;2022-11-15T17:02:40;101234.19;;;6.55;100.00
54022;BME280;39936;51.058;17.220;2022-11-15T17:06:08;101231.66;;;6.28;100.00
54022;BME280;39936;51.058;17.220;2022-11-15T17:10:26;101228.87;;;6.10;100.00
54022;BME280;39936;51.058;17.220;2022-11-15T17:18:11;101222.31;;;6.03;100.00
54022;BME280;39936;51.058;17.220;2022-11-15T17:21:37;101218.71;;;6.06;100.00
54022;BME280;39936;51.058;17.220;2022-11-15T17:28:54;101220.46;;;5.95;100.00
54022;BME280;39936;51.058;17.220;2022-11-15T17:32:13;101223.42;;;5.80;100.00
54022;BME280;39936;51.058;17.220;2022-11-15T17:35:56;101227.51;;;5.58;100.00
54022;BME280;39936;51.058;17.220;2022-11-15T17:39:57;101224.97;;;5.27;100.00
54022;BME280;39936;51.058;17.220;2022-11-15T17:43:44;101221.42;;;5.16;100.00
54022;BME280;39936;51.058;17.220;2022-11-15T17:47:47;101222.42;;;5.12;100.00
54022;BME280;39936;51.058;17.220;2022-11-15T17:51:23;101222.59;;;5.13;100.00
54022;BME280;39936;51.058;17.220;2022-11-15T17:55:22;101220.41;;;4.84;100.00
54022;BME280;39936;51.058;17.220;2022-11-15T17:58:39;101216.59;;;4.88;100.00
54022;BME280;39936;51.058;17.220;2022-11-15T18:03:31;101216.78;;;4.97;100.00
54022;BME280;39936;51.058;17.220;2022-11-15T18:07:13;101206.73;;;5.09;100.00
54022;BME280;39936;51.058;17.220;2022-11-15T18:10:27;101208.92;;;5.01;100.00
54022;BME280;39936;51.058;17.220;2022-11-15T18:14:01;101211.26;;;4.63;100.00
54022;BME280;39936;51.058;17.220;2022-11-15T18:17:54;101206.32;;;4.35;100.00
54022;BME280;39936;51.058;17.220;2022-11-15T18:21:21;101199.41;;;4.32;100.00
54022;BME280;39936;51.058;17.220;2022-11-15T18:24:56;101203.55;;;4.35;100.00
54022;BME280;39936;51.058;17.220;2022-11-15T18:28:29;101199.98;;;4.16;100.00
54022;BME280;39936;51.058;17.220;2022-11-15T18:32:05;101197.84;;;4.09;100.00
54022;BME280;39936;51.058;17.220;2022-11-15T18:36:00;101197.97;;;4.12;100.00
54022;BME280;39936;51.058;17.220;2022-11-15T18:39:35;101192.58;;;4.20;100.00
54022;BME280;39936;51.058;17.220;2022-11-15T18:42:55;101191.91;;;4.29;100.00
54022;BME280;39936;51.058;17.220;2022-11-15T18:46:47;101193.20;;;4.28;100.00
54022;BME280;39936;51.058;17.220;2022-11-15T18:50:07;101192.42;;;4.12;100.00
54022;BME280;39936;51.058;17.220;2022-11-15T18:53:17;101197.02;;;3.94;100.00
54022;BME280;39936;51.058;17.220;2022-11-15T18:56:42;101197.22;;;3.84;100.00
54022;BME280;39936;51.058;17.220;2022-11-15T18:59:58;101192.60;;;3.85;100.00
54022;BME280;39936;51.058;17.220;2022-11-15T19:03:46;101187.23;;;3.93;100.00
54022;BME280;39936;51.058;17.220;2022-11-15T19:07:01;101191.01;;;4.03;100.00
54022;BME280;39936;51.058;17.220;2022-11-15T19:10:22;101189.13;;;4.10;100.00
54022;BME280;39936;51.058;17.220;2022-11-15T19:14:12;101183.49;;;4.19;100.00
54022;BME280;39936;51.058;17.220;2022-11-15T19:18:16;101184.52;;;4.30;100.00
54022;BME280;39936;51.058;17.220;2022-11-15T19:21:32;101186.24;;;4.36;100.00
54022;BME280;39936;51.058;17.220;2022-11-15T19:24:43;101185.81;;;4.14;100.00
54022;BME280;39936;51.058;17.220;2022-11-15T19:28:02;101192.46;;;3.97;100.00
54022;BME280;39936;51.058;17.220;2022-11-15T19:31:16;101187.89;;;3.81;100.00
54022;BME280;39936;51.058;17.220;2022-11-15T19:34:49;101184.13;;;3.72;100.00
54022;BME280;39936;51.058;17.220;2022-11-15T19:38:49;101176.20;;;3.71;100.00
54022;BME280;39936;51.058;17.220;2022-11-15T19:42:42;101168.14;;;3.77;100.00
54022;BME280;39936;51.058;17.220;2022-11-15T19:45:59;101176.08;;;3.88;100.00
54022;BME280;39936;51.058;17.220;2022-11-15T19:49:25;101173.90;;;3.95;100.00
54022;BME280;39936;51.058;17.220;2022-11-15T19:52:39;101167.66;;;3.99;100.00
54022;BME280;39936;51.058;17.220;2022-11-15T19:55:55;101154.16;;;3.98;100.00
54022;BME280;39936;51.058;17.220;2022-11-15T19:59:30;101146.91;;;4.01;100.00
54022;BME280;39936;51.058;17.220;2022-11-15T20:02:46;101141.51;;;4.09;100.00
54022;BME280;39936;51.058;17.220;2022-11-15T20:06:30;101142.77;;;4.16;100.00
54022;BME280;39936;51.058;17.220;2022-11-15T20:10:47;101133.49;;;4.28;100.00
54022;BME280;39936;51.058;17.220;2022-11-15T20:14:34;101127.10;;;4.25;100.00
54022;BME280;39936;51.058;17.220;2022-11-15T20:28:50;101115.18;;;4.83;100.00
54022;BME280;39936;51.058;17.220;2022-11-15T20:32:06;101114.00;;;4.94;100.00
54022;BME280;39936;51.058;17.220;2022-11-15T20:35:49;101110.03;;;4.86;100.00
54022;BME280;39936;51.058;17.220;2022-11-15T20:39:16;101109.19;;;4.74;100.00
54022;BME280;39936;51.058;17.220;2022-11-15T20:42:37;101115.80;;;4.78;100.00
54022;BME280;39936;51.058;17.220;2022-11-15T20:46:12;101116.72;;;4.80;100.00
54022;BME280;39936;51.058;17.220;2022-11-15T21:00:29;101108.87;;;5.06;100.00
54022;BME280;39936;51.058;17.220;2022-11-15T21:03:40;101103.99;;;5.07;100.00
54022;BME280;39936;51.058;17.220;2022-11-15T21:06:58;101101.27;;;4.99;100.00
54022;BME280;39936;51.058;17.220;2022-11-15T21:10:17;101106.53;;;4.87;100.00
54022;BME280;39936;51.058;17.220;2022-11-15T21:14:11;101100.72;;;4.69;100.00
54022;BME280;39936;51.058;17.220;2022-11-15T21:17:27;101108.09;;;4.66;100.00
54022;BME280;39936;51.058;17.220;2022-11-15T21:21:19;101112.82;;;4.66;100.00
54022;BME280;39936;51.058;17.220;2022-11-15T21:24:35;101110.80;;;4.65;100.00
54022;BME280;39936;51.058;17.220;2022-11-15T21:27:49;101099.17;;;4.61;100.00
54022;BME280;39936;51.058;17.220;2022-11-15T21:31:08;101097.39;;;4.64;100.00
54022;BME280;39936;51.058;17.220;2022-11-15T21:34:19;101085.25;;;4.67;100.00
54022;BME280;39936;51.058;17.220;2022-11-15T21:38:01;101076.04;;;4.76;100.00
54022;BME280;39936;51.058;17.220;2022-11-15T21:41:15;101071.20;;;4.88;100.00
54022;BME280;39936;51.058;17.220;2022-11-15T21:44:26;101070.88;;;4.99;100.00
54022;BME280;39936;51.058;17.220;2022-11-15T21:47:51;101074.70;;;5.06;100.00
54022;BME280;39936;51.058;17.220;2022-11-15T21:51:06;101078.35;;;5.02;100.00
54022;BME280;39936;51.058;17.220;2022-11-15T21:54:16;101071.33;;;4.89;100.00
54022;BME280;39936;51.058;17.220;2022-11-15T21:58:17;101072.27;;;4.70;100.00
54022;BME280;39936;51.058;17.220;2022-11-15T22:01:36;101069.05;;;4.53;100.00
54022;BME280;39936;51.058;17.220;2022-11-15T22:08:57;101053.80;;;4.50;100.00
54022;BME280;39936;51.058;17.220;2022-11-15T22:12:36;101052.45;;;4.59;100.00
54022;BME280;39936;51.058;17.220;2022-11-15T22:15:59;101050.30;;;4.69;100.00
54022;BME280;39936;51.058;17.220;2022-11-15T22:19:08;101052.26;;;4.74;100.00
54022;BME280;39936;51.058;17.220;2022-11-15T22:22:30;101050.89;;;4.68;100.00
54022;BME280;39936;51.058;17.220;2022-11-15T22:25:58;101044.72;;;4.64;100.00
54022;BME280;39936;51.058;17.220;2022-11-15T22:32:59;101042.20;;;4.59;100.00
54022;BME280;39936;51.058;17.220;2022-11-15T22:36:21;101046.84;;;4.70;100.00
54022;BME280;39936;51.058;17.220;2022-11-15T22:39:56;101048.08;;;4.72;100.00
54022;BME280;39936;51.058;17.220;2022-11-15T22:43:30;101050.64;;;4.86;100.00
54022;BME280;39936;51.058;17.220;2022-11-15T23:04:24;100996.44;;;5.05;100.00
54022;BME280;39936;51.058;17.220;2022-11-15T23:08:27;100976.09;;;4.85;100.00
54022;BME280;39936;51.058;17.220;2022-11-15T23:11:37;101028.04;;;5.09;100.00
54022;BME280;39936;51.058;17.220;2022-11-15T23:15:15;101026.36;;;4.78;100.00
54022;BME280;39936;51.058;17.220;2022-11-15T23:18:39;101016.65;;;4.61;100.00
54022;BME280;39936;51.058;17.220;2022-11-15T23:22:27;101000.31;;;4.46;100.00
54022;BME280;39936;51.058;17.220;2022-11-15T23:25:57;100986.71;;;4.43;100.00
54022;BME280;39936;51.058;17.220;2022-11-15T23:33:04;101012.84;;;4.53;100.00
54022;BME280;39936;51.058;17.220;2022-11-15T23:37:09;101016.02;;;4.47;100.00
54022;BME280;39936;51.058;17.220;2022-11-15T23:40:27;101023.93;;;4.32;100.00
54022;BME280;39936;51.058;17.220;2022-11-15T23:43:54;101022.41;;;4.16;100.00
54022;BME280;39936;51.058;17.220;2022-11-15T23:56:46;100997.73;;;4.32;100.00
54022;BME280;39936;51.058;17.220;2022-11-15T23:59:59;100991.62;;;4.40;100.00
